Time;durP1;ratioP1;P1;durP2;ratioP2;P2;SDS_P1;SDS_P2;PMS_P1;PMS_P2;Temp;Humidity;BMP_temperature;BMP_pressure;BME280_temperature;BME280_humidity;BME280_pressure;Samples;Min_cycle;Max_cycle;Signal;HPM_P1;HPM_P2
2021/06/05 00:00:32;;;;;;;9.10;8.20;;;;;;;24.89;50.23;101744.31;5034014;28;20403;-62
2021/06/05 00:03:01;;;;;;;9.20;8.30;;;;;;;24.89;50.29;101738.13;5034997;28;20399;-62
2021/06/05 00:05:36;;;;;;;10.90;8.00;;;;;;;24.88;50.19;101736.44;5033833;28;20408;-63
2021/06/05 00:08:05;;;;;;;10.88;8.82;;;;;;;24.87;49.99;101732.06;5033802;28;20411;-62
2021/06/05 00:10:38;;;;;;;9.98;8.13;;;;;;;24.85;50.00;101731.38;5034027;28;20491;-62
2021/06/05 00:13:08;;;;;;;9.80;8.35;;;;;;;24.83;50.26;101734.22;5033739;28;20050;-63
2021/06/05 00:15:39;;;;;;;9.02;8.00;;;;;;;24.82;50.18;101723.63;5034017;28;20088;-62
2021/06/05 00:18:07;;;;;;;9.77;8.75;;;;;;;24.80;50.16;101722.94;5033689;28;20454;-62
2021/06/05 00:20:37;;;;;;;9.77;8.77;;;;;;;24.78;49.87;101717.72;5033664;28;20403;-62
2021/06/05 00:23:08;;;;;;;9.23;8.32;;;;;;;24.77;49.94;101714.22;5033920;28;20045;-62
2021/06/05 00:25:36;;;;;;;10.02;8.80;;;;;;;24.75;50.09;101713.53;5033563;28;20471;-62
2021/06/05 00:28:05;;;;;;;9.65;8.65;;;;;;;24.74;49.96;101711.00;5033573;28;20056;-62
2021/06/05 00:30:34;;;;;;;10.43;8.20;;;;;;;24.71;49.91;101713.97;5033858;28;20054;-62
2021/06/05 00:33:02;;;;;;;12.77;8.77;;;;;;;24.69;49.94;101707.94;5033785;28;20088;-62
2021/06/05 00:35:33;;;;;;;9.15;8.05;;;;;;;24.66;49.93;101713.63;5033506;28;20383;-62
2021/06/05 00:38:00;;;;;;;9.82;8.45;;;;;;;24.63;50.03;101709.38;5033722;28;20391;-62
2021/06/05 00:40:32;;;;;;;8.75;7.88;;;;;;;24.62;49.78;101703.16;5033429;28;20399;-62
2021/06/05 00:43:00;;;;;;;9.32;8.32;;;;;;;24.60;50.25;101702.47;5033365;28;20385;-62
2021/06/05 00:45:32;;;;;;;12.80;9.05;;;;;;;24.57;50.05;101697.44;5033686;28;20403;-62
2021/06/05 00:48:00;;;;;;;12.77;9.00;;;;;;;24.55;50.05;101696.72;5033206;28;20402;-63
2021/06/05 00:50:28;;;;;;;11.75;9.07;;;;;;;24.53;50.16;101696.06;5033234;28;20398;-63
2021/06/05 00:52:58;;;;;;;11.98;9.65;;;;;;;24.51;50.58;101694.53;5033332;28;20045;-62
2021/06/05 00:55:28;;;;;;;11.98;8.80;;;;;;;24.50;50.68;101682.13;5033469;28;20391;-62
2021/06/05 00:57:57;;;;;;;9.88;8.88;;;;;;;24.49;50.59;101691.16;5033171;28;20095;-62
2021/06/05 01:00:44;;;;;;;10.38;9.27;;;;;;;24.48;50.38;101695.69;5033143;28;20426;-62
2021/06/05 01:03:12;;;;;;;11.88;8.52;;;;;;;24.46;50.43;101695.00;5033149;28;20481;-62
2021/06/05 01:05:42;;;;;;;12.07;9.18;;;;;;;24.45;50.68;101690.63;5033139;28;20407;-62
2021/06/05 01:08:28;;;;;;;11.25;9.63;;;;;;;24.44;50.86;101696.97;5033057;28;20373;-62
2021/06/05 01:11:06;;;;;;;10.52;9.30;;;;;;;24.43;50.73;101708.72;5036036;28;20373;-62
2021/06/05 01:13:54;;;;;;;12.45;9.65;;;;;;;24.38;50.68;101709.19;5037153;28;20053;-62
2021/06/05 01:16:24;;;;;;;11.25;9.75;;;;;;;24.30;51.17;101717.16;5037011;28;20091;-62
2021/06/05 01:19:00;;;;;;;11.45;9.98;;;;;;;24.21;51.96;101724.25;5036979;28;20476;-62
2021/06/05 01:21:42;;;;;;;10.85;9.82;;;;;;;24.14;52.03;101725.91;5037792;28;20371;-62
2021/06/05 01:24:31;;;;;;;12.20;10.55;;;;;;;24.08;52.15;101730.00;5036895;28;20434;-62
2021/06/05 01:27:05;;;;;;;13.27;11.88;;;;;;;24.02;52.24;101724.41;5037255;28;20057;-62
2021/06/05 01:29:37;;;;;;;18.57;13.43;;;;;;;23.92;52.19;101721.78;5036686;28;20384;-62
2021/06/05 01:32:09;;;;;;;14.30;12.90;;;;;;;23.87;52.18;101718.69;5037380;28;20622;-62
2021/06/05 01:34:44;;;;;;;14.13;12.50;;;;;;;23.86;52.27;101717.00;5036730;28;20451;-62
2021/06/05 01:37:15;;;;;;;14.40;12.93;;;;;;;23.83;52.54;101715.47;5036908;28;20115;-62
2021/06/05 01:39:46;;;;;;;13.98;12.20;;;;;;;23.81;52.30;101715.63;5037002;28;20144;-62
2021/06/05 01:42:18;;;;;;;16.23;13.13;;;;;;;23.80;52.32;101715.78;5037623;28;20352;-63
2021/06/05 01:44:50;;;;;;;15.32;12.65;;;;;;;23.77;52.42;101716.94;5036559;28;20080;-63
2021/06/05 01:47:18;;;;;;;14.57;13.07;;;;;;;23.72;52.72;101721.03;5036490;28;20403;-63
2021/06/05 01:49:47;;;;;;;16.50;13.18;;;;;;;23.69;53.30;101715.97;5036321;28;20050;-62
2021/06/05 01:52:21;;;;;;;15.73;13.55;;;;;;;23.64;53.46;101721.78;5036746;28;20477;-62
2021/06/05 01:54:58;;;;;;;15.57;14.07;;;;;;;23.54;53.64;101716.50;5036449;28;20501;-62
2021/06/05 01:57:33;;;;;;;14.93;13.40;;;;;;;23.50;53.83;101711.56;5036587;28;20387;-62
2021/06/05 02:00:06;;;;;;;14.90;13.30;;;;;;;23.46;54.05;101703.84;5036526;28;20487;-62
2021/06/05 02:02:34;;;;;;;15.00;13.40;;;;;;;23.43;54.28;101698.75;5036306;28;20491;-62
2021/06/05 02:05:02;;;;;;;15.57;13.48;;;;;;;23.43;54.04;101695.25;5036935;28;20053;-62
2021/06/05 02:07:29;;;;;;;15.82;13.90;;;;;;;23.44;54.24;101700.47;5036185;28;20411;-62
2021/06/05 02:09:57;;;;;;;17.48;14.63;;;;;;;23.45;54.42;101693.25;5036342;28;20086;-62
2021/06/05 02:12:31;;;;;;;15.18;13.25;;;;;;;23.47;54.12;101692.13;5036014;28;20427;-62
2021/06/05 02:15:16;;;;;;;14.82;13.32;;;;;;;23.49;54.32;101686.63;5036290;28;20041;-62
2021/06/05 02:17:45;;;;;;;14.73;12.77;;;;;;;23.44;54.05;101687.06;5035914;28;20511;-63
2021/06/05 02:20:29;;;;;;;14.63;13.07;;;;;;;23.44;54.86;101691.59;5036763;28;20396;-63
2021/06/05 02:23:03;;;;;;;16.40;14.68;;;;;;;23.43;54.80;101679.19;5035824;28;20397;-63
2021/06/05 02:29:26;;;;;;;18.45;14.82;;;;;;;23.43;54.71;101688.06;5034851;28;20107;-62
2021/06/05 02:31:54;;;;;;;21.17;14.68;;;;;;;23.44;55.08;101688.91;5034573;28;20430;-63
2021/06/05 02:34:25;;;;;;;17.00;15.00;;;;;;;23.43;55.05;101682.69;5034484;28;20450;-62
2021/06/05 02:36:57;;;;;;;16.23;14.45;;;;;;;23.42;54.99;101682.84;5034487;28;20056;-63
2021/06/05 02:39:25;;;;;;;17.08;15.32;;;;;;;23.40;55.25;101685.69;5033288;28;20053;-62
2021/06/05 02:41:54;;;;;;;20.42;14.27;;;;;;;23.38;55.33;101684.16;5034815;28;20045;-63
2021/06/05 02:44:28;;;;;;;17.48;15.25;;;;;;;23.35;55.60;101682.59;5034334;28;20423;-62
2021/06/05 02:46:58;;;;;;;18.48;14.88;;;;;;;23.33;55.55;101673.03;5034444;28;20376;-62
2021/06/05 02:49:32;;;;;;;17.08;14.57;;;;;;;23.33;55.44;101668.50;5034228;28;20407;-63
2021/06/05 02:52:33;;;;;;;18.83;14.40;;;;;;;23.35;55.42;101665.69;5034276;28;20403;-63
2021/06/05 02:55:09;;;;;;;17.05;14.65;;;;;;;23.36;55.65;101667.38;5034473;28;20099;-62
2021/06/05 02:57:38;;;;;;;18.77;15.52;;;;;;;23.35;55.90;101665.69;5034211;28;20431;-63
2021/06/05 03:00:26;;;;;;;17.33;15.43;;;;;;;23.31;55.73;101665.13;5034192;28;20431;-62
2021/06/05 03:03:08;;;;;;;17.85;14.35;;;;;;;23.29;56.28;101667.13;5034146;28;20404;-62
2021/06/05 03:05:54;;;;;;;15.98;14.27;;;;;;;23.27;56.51;101671.78;5033717;28;20053;-62
2021/06/05 03:08:36;;;;;;;15.70;14.10;;;;;;;23.24;56.58;101675.59;5033828;28;20446;-62
2021/06/05 03:11:09;;;;;;;19.77;15.80;;;;;;;23.22;56.68;101674.06;5033918;28;20442;-62
2021/06/05 03:13:37;;;;;;;16.52;14.80;;;;;;;23.18;56.83;101675.34;5033866;28;20440;-62
2021/06/05 03:16:05;;;;;;;19.17;15.38;;;;;;;23.14;56.69;101672.09;5033881;28;20407;-62
2021/06/05 03:18:34;;;;;;;17.23;15.40;;;;;;;23.12;57.10;101663.34;5033844;28;20388;-62
2021/06/05 03:21:03;;;;;;;18.55;15.55;;;;;;;23.12;56.97;101663.34;5033765;28;20637;-62
2021/06/05 03:23:32;;;;;;;17.67;15.80;;;;;;;23.12;57.22;101663.34;5034077;28;20427;-66
2021/06/05 03:26:01;;;;;;;18.15;15.32;;;;;;;23.12;57.32;101661.53;5034344;28;20368;-62
2021/06/05 03:28:31;;;;;;;17.55;15.60;;;;;;;23.11;56.96;101659.84;5017366;28;457849;-70
2021/06/05 03:31:00;;;;;;;17.60;15.75;;;;;;;23.11;57.39;101657.16;5034226;28;20408;-62
2021/06/05 03:33:28;;;;;;;17.73;15.70;;;;;;;23.10;57.37;101660.00;5033765;28;20419;-62
2021/06/05 03:35:57;;;;;;;17.45;15.65;;;;;;;23.08;57.82;101656.59;5034463;28;20395;-62
2021/06/05 03:38:27;;;;;;;21.83;16.15;;;;;;;23.04;58.05;101666.75;5034384;28;20377;-62
2021/06/05 03:40:56;;;;;;;19.50;16.73;;;;;;;23.00;58.27;101665.38;5034724;28;20439;-63
2021/06/05 03:43:23;;;;;;;20.65;16.45;;;;;;;22.99;57.94;101659.19;5034231;28;20415;-63
2021/06/05 03:45:52;;;;;;;19.75;16.92;;;;;;;22.99;58.27;101653.84;5034328;28;20381;-62
2021/06/05 03:48:20;;;;;;;19.63;17.35;;;;;;;23.02;57.81;101643.81;5016952;28;20381;-63
2021/06/05 03:50:51;;;;;;;19.80;16.48;;;;;;;23.02;58.21;101654.50;5034171;28;20416;-63
2021/06/05 03:53:21;;;;;;;21.58;15.65;;;;;;;23.00;57.98;101651.97;5034092;28;20404;-62
2021/06/05 03:55:49;;;;;;;23.27;17.50;;;;;;;22.99;57.86;101651.16;5034015;28;20377;-64
2021/06/05 03:58:24;;;;;;;18.08;16.08;;;;;;;22.97;58.27;101660.31;5033975;28;20442;-63
2021/06/05 04:00:51;;;;;;;19.50;17.40;;;;;;;22.96;57.98;101662.13;5034004;28;20416;-62
2021/06/05 04:03:20;;;;;;;18.67;16.67;;;;;;;22.96;58.33;101675.53;5033931;28;20404;-63
2021/06/05 04:05:49;;;;;;;22.13;17.15;;;;;;;22.97;58.00;101669.19;5034244;28;20041;-62
2021/06/05 04:08:17;;;;;;;20.77;16.83;;;;;;;22.97;58.14;101674.53;5035238;28;20349;-62
2021/06/05 04:10:44;;;;;;;20.27;17.65;;;;;;;22.97;57.94;101668.34;5033738;28;20450;-63
2021/06/05 04:13:12;;;;;;;18.77;16.77;;;;;;;22.97;57.91;101668.34;5034227;28;20045;-62
2021/06/05 04:15:40;;;;;;;22.42;17.55;;;;;;;22.95;57.77;101665.78;5034169;28;20392;-63
2021/06/05 04:18:11;;;;;;;20.58;18.17;;;;;;;22.96;58.21;101675.53;5033710;28;20384;-62
2021/06/05 04:20:40;;;;;;;22.17;18.17;;;;;;;22.96;58.42;101675.53;5033678;28;20427;-66
2021/06/05 04:23:10;;;;;;;21.00;18.42;;;;;;;22.99;58.05;101674.38;5033663;28;20443;-62
2021/06/05 04:25:39;;;;;;;21.38;17.25;;;;;;;23.02;58.37;101668.75;5033912;28;20052;-62
2021/06/05 04:28:10;;;;;;;20.27;17.63;;;;;;;23.03;58.48;101670.41;5033903;28;20399;-62
2021/06/05 04:30:40;;;;;;;23.55;16.70;;;;;;;23.03;58.03;101666.91;5033465;28;20379;-62
2021/06/05 04:33:10;;;;;;;18.63;16.63;;;;;;;23.04;58.56;101671.28;5033859;28;20391;-62
2021/06/05 04:35:38;;;;;;;20.13;15.70;;;;;;;23.04;58.40;101671.28;5033371;28;20395;-62
2021/06/05 04:38:07;;;;;;;22.00;16.25;;;;;;;23.03;58.28;101662.38;5033385;28;20493;-62
2021/06/05 04:40:36;;;;;;;22.85;16.95;;;;;;;23.04;58.64;101660.56;5033352;28;20377;-62
2021/06/05 04:43:04;;;;;;;21.33;16.92;;;;;;;23.03;58.63;101650.84;5033391;28;20419;-62
2021/06/05 04:45:32;;;;;;;22.65;16.70;;;;;;;23.02;58.74;101654.50;5033533;28;20132;-62
2021/06/05 04:48:01;;;;;;;20.42;15.68;;;;;;;23.04;58.28;101639.16;5033253;28;20513;-63
2021/06/05 04:50:32;;;;;;;23.83;17.05;;;;;;;23.04;58.04;101639.16;5033212;28;20470;-62
2021/06/05 04:53:00;;;;;;;21.70;17.15;;;;;;;23.03;58.02;101638.28;5033610;28;20439;-62
2021/06/05 04:55:28;;;;;;;25.50;16.35;;;;;;;23.03;57.75;101646.31;5033248;28;20399;-62
2021/06/05 04:57:57;;;;;;;19.17;15.95;;;;;;;23.05;57.55;101646.19;5033211;28;20399;-63
2021/06/05 05:00:32;;;;;;;23.75;16.10;;;;;;;23.08;57.52;101653.94;5033179;28;20407;-62
2021/06/05 05:03:01;;;;;;;20.00;15.45;;;;;;;23.11;57.64;101653.66;5033468;28;20434;-62
2021/06/05 05:05:30;;;;;;;19.60;15.57;;;;;;;23.14;57.21;101656.03;5033412;28;20395;-62
2021/06/05 05:07:58;;;;;;;17.33;14.82;;;;;;;23.18;57.56;101662.78;5033126;28;20419;-62
2021/06/05 05:10:31;;;;;;;19.65;15.20;;;;;;;23.20;57.23;101663.50;5033253;28;20513;-62
2021/06/05 05:13:00;;;;;;;17.00;15.25;;;;;;;23.23;57.04;101665.03;5033085;28;20399;-62
2021/06/05 05:15:29;;;;;;;18.95;15.40;;;;;;;23.23;57.15;101665.88;5033015;28;20411;-62
2021/06/05 05:17:57;;;;;;;19.92;14.52;;;;;;;23.24;57.23;101666.72;5033017;28;20394;-62
2021/06/05 05:20:31;;;;;;;20.13;14.15;;;;;;;23.24;56.93;101669.41;5032968;28;20459;-62
2021/06/05 05:23:06;;;;;;;18.42;15.15;;;;;;;23.24;56.68;101666.72;5032973;28;20446;-62
2021/06/05 05:26:21;;;;;;;18.17;14.88;;;;;;;23.24;56.87;101670.25;5032271;28;20431;-62
2021/06/05 05:28:52;;;;;;;18.45;14.60;;;;;;;23.29;56.61;101677.84;5032805;28;20053;-62
2021/06/05 05:31:23;;;;;;;17.85;14.85;;;;;;;23.29;56.70;101676.00;5032830;28;20400;-62
2021/06/05 05:33:51;;;;;;;20.33;15.23;;;;;;;23.33;56.62;101683.75;5032832;28;20384;-62
2021/06/05 05:36:31;;;;;;;17.88;14.48;;;;;;;23.37;56.72;101687.81;5032880;28;20399;-62
2021/06/05 05:39:12;;;;;;;16.63;14.88;;;;;;;23.40;56.50;101688.38;5033438;28;20377;-62
2021/06/05 05:41:40;;;;;;;18.58;15.02;;;;;;;23.45;56.28;101693.25;5033124;28;20455;-62
2021/06/05 05:44:08;;;;;;;19.25;15.18;;;;;;;23.48;56.59;101692.97;5032754;28;20399;-63
2021/06/05 05:46:37;;;;;;;20.58;14.82;;;;;;;23.52;56.69;101688.16;5033593;28;20042;-62
2021/06/05 05:49:05;;;;;;;19.10;14.52;;;;;;;23.55;56.58;101693.22;5032732;28;20488;-65
2021/06/05 05:51:33;;;;;;;17.13;15.20;;;;;;;23.57;56.24;101692.06;5032922;28;20376;-62
2021/06/05 05:54:02;;;;;;;17.92;15.40;;;;;;;23.58;56.18;101684.88;5033011;28;20435;-63
2021/06/05 05:56:33;;;;;;;21.67;15.95;;;;;;;23.63;56.10;101696.00;5034367;28;20398;-62
2021/06/05 05:59:01;;;;;;;18.48;15.85;;;;;;;23.68;56.51;101701.75;5036431;28;20045;-62
2021/06/05 06:01:30;;;;;;;19.52;16.42;;;;;;;23.73;56.42;101701.28;5036171;28;20408;-62
2021/06/05 06:03:59;;;;;;;20.80;16.30;;;;;;;23.77;56.36;101692.81;5036201;28;20407;-62
2021/06/05 06:06:31;;;;;;;17.27;15.35;;;;;;;23.81;56.33;101690.66;5036167;28;20447;-62
2021/06/05 06:08:59;;;;;;;20.58;14.70;;;;;;;23.87;56.26;101697.25;5036016;28;20443;-62
2021/06/05 06:11:27;;;;;;;19.00;16.35;;;;;;;23.90;55.94;101697.78;5036403;28;20116;-62
2021/06/05 06:13:56;;;;;;;16.88;15.15;;;;;;;23.94;55.92;101693.84;5036388;28;20128;-62
2021/06/05 06:16:24;;;;;;;23.75;18.23;;;;;;;23.98;55.90;101694.38;5035911;28;20407;-62
2021/06/05 06:18:53;;;;;;;22.25;16.75;;;;;;;24.03;56.47;101694.78;5035904;28;20399;-62
2021/06/05 06:21:23;;;;;;;19.23;16.23;;;;;;;24.06;56.20;101690.94;5036134;28;20373;-62
2021/06/05 06:23:52;;;;;;;19.27;15.98;;;;;;;24.11;55.79;101689.50;5035915;28;20376;-62
2021/06/05 06:26:27;;;;;;;18.30;15.98;;;;;;;24.18;55.80;101696.94;5035802;28;20049;-62
2021/06/05 06:28:56;;;;;;;17.23;15.10;;;;;;;24.23;56.04;101703.50;5035665;28;20392;-62
2021/06/05 06:31:24;;;;;;;17.30;13.50;;;;;;;24.27;55.71;101699.50;5035610;28;20399;-62
2021/06/05 06:33:52;;;;;;;16.30;12.70;;;;;;;24.31;55.20;101697.38;5035714;28;20399;-62
2021/06/05 06:36:21;;;;;;;13.98;12.23;;;;;;;24.37;54.61;101703.97;5036045;28;20418;-62
2021/06/05 06:38:49;;;;;;;15.52;13.52;;;;;;;24.41;53.70;101711.53;5035970;28;20091;-62
2021/06/05 06:41:26;;;;;;;14.73;11.18;;;;;;;24.46;54.07;101714.59;5035857;28;20449;-62
2021/06/05 06:43:56;;;;;;;15.20;11.15;;;;;;;24.51;53.28;101716.84;5035461;28;20411;-62
2021/06/05 06:46:28;;;;;;;12.15;10.90;;;;;;;24.56;53.28;101705.63;5035420;28;20464;-62
2021/06/05 06:48:58;;;;;;;12.88;10.68;;;;;;;24.59;53.11;101708.88;5035386;28;20399;-62
2021/06/05 06:51:27;;;;;;;12.60;9.90;;;;;;;24.64;52.69;101711.09;5035604;28;20045;-62
2021/06/05 06:53:55;;;;;;;11.32;9.82;;;;;;;24.71;52.75;101706.78;5035364;28;20407;-62
2021/06/05 06:56:24;;;;;;;15.32;10.10;;;;;;;24.78;52.65;101709.69;5035661;28;20049;-62
2021/06/05 06:58:52;;;;;;;11.38;10.18;;;;;;;24.82;52.69;101704.84;5035201;28;20480;-70
2021/06/05 07:01:20;;;;;;;13.68;9.68;;;;;;;24.88;52.29;101706.91;5035516;28;20053;-62
2021/06/05 07:03:48;;;;;;;12.40;11.00;;;;;;;24.88;52.06;101705.03;5035403;28;20388;-66
2021/06/05 07:06:18;;;;;;;10.50;8.77;;;;;;;24.90;51.91;101703.06;5035069;28;20399;-64
2021/06/05 07:08:46;;;;;;;9.57;8.63;;;;;;;24.94;52.06;101696.38;5034117;28;20457;-64
2021/06/05 07:11:21;;;;;;;13.02;9.73;;;;;;;25.00;52.03;101699.41;5034908;28;20394;-64
2021/06/05 07:13:49;;;;;;;10.82;8.75;;;;;;;25.04;51.68;101698.09;5035559;28;20387;-67
2021/06/05 07:16:18;;;;;;;9.38;8.43;;;;;;;25.08;51.77;101699.47;5034940;28;20499;-64
2021/06/05 07:18:47;;;;;;;10.32;8.02;;;;;;;25.15;51.69;101699.66;5034878;28;20403;-66
2021/06/05 07:21:16;;;;;;;9.10;6.03;;;;;;;25.19;51.65;101687.59;5035334;28;20430;-65
2021/06/05 07:23:44;;;;;;;7.97;6.97;;;;;;;25.23;51.01;101683.56;5034766;28;20408;-65
2021/06/05 07:26:21;;;;;;;8.45;6.75;;;;;;;25.26;50.57;101677.91;5034663;28;20046;-64
2021/06/05 07:28:52;;;;;;;7.45;5.82;;;;;;;25.29;50.20;101672.19;5034376;28;20404;-65
2021/06/05 07:31:30;;;;;;;10.60;5.70;;;;;;;25.34;49.91;101666.34;5034528;28;20448;-66
2021/06/05 07:33:58;;;;;;;7.40;6.43;;;;;;;25.40;49.85;101673.78;5034528;28;20470;-66
2021/06/05 07:36:40;;;;;;;7.22;6.22;;;;;;;25.47;49.97;101669.47;5034489;28;20444;-65
2021/06/05 07:39:12;;;;;;;12.10;5.57;;;;;;;25.52;49.53;101660.88;5034050;28;20399;-66
2021/06/05 07:41:42;;;;;;;5.97;5.32;;;;;;;25.59;49.24;101661.94;5034649;28;20442;-69
2021/06/05 07:44:14;;;;;;;10.20;5.82;;;;;;;25.66;49.39;101662.97;5034362;28;20456;-67
2021/06/05 07:46:45;;;;;;;9.20;7.65;;;;;;;25.72;49.05;101656.06;5034332;28;20466;-65
2021/06/05 07:49:14;;;;;;;10.57;6.65;;;;;;;25.77;48.54;101655.59;5035675;28;20356;-65
2021/06/05 07:51:42;;;;;;;5.80;5.15;;;;;;;25.80;48.65;101648.03;5034090;28;20481;-66
2021/06/05 07:54:11;;;;;;;7.85;5.65;;;;;;;25.87;48.17;101650.91;5034730;28;20411;-69
2021/06/05 07:56:40;;;;;;;5.55;4.63;;;;;;;25.92;47.82;101646.69;5034138;28;20495;-66
2021/06/05 07:59:10;;;;;;;7.35;5.97;;;;;;;25.99;47.75;101657.63;5034020;28;20406;-65
2021/06/05 08:01:38;;;;;;;6.10;4.90;;;;;;;26.01;47.55;101666.38;5033637;28;20049;-65
2021/06/05 08:04:06;;;;;;;5.22;4.70;;;;;;;26.08;47.43;101661.22;5033567;28;20402;-65
2021/06/05 08:06:35;;;;;;;5.97;4.35;;;;;;;26.15;47.25;101661.38;5033836;28;20042;-65
2021/06/05 08:09:06;;;;;;;6.30;4.25;;;;;;;26.22;47.21;101660.53;5033996;28;20045;-66
2021/06/05 08:11:37;;;;;;;5.72;4.57;;;;;;;26.32;46.72;101659.50;5032670;28;20403;-66
2021/06/05 08:14:07;;;;;;;4.78;4.30;;;;;;;26.38;46.22;101653.47;5034141;28;20049;-66
2021/06/05 08:16:37;;;;;;;9.20;4.88;;;;;;;26.47;46.33;101648.91;5033833;28;20373;-66
2021/06/05 08:19:12;;;;;;;6.80;4.88;;;;;;;26.55;46.48;101649.75;5033692;28;20406;-65
2021/06/05 08:21:43;;;;;;;5.05;4.53;;;;;;;26.63;46.11;101648.88;5033627;28;20045;-66
2021/06/05 08:28:02;;;;;;;6.57;4.60;;;;;;;26.81;45.46;101635.25;5033507;28;20056;-65
2021/06/05 08:30:41;;;;;;;5.22;4.72;;;;;;;26.89;45.21;101639.75;5033385;28;20045;-66
2021/06/05 08:33:23;;;;;;;7.90;4.43;;;;;;;26.96;44.97;101642.63;5031796;28;20128;-67
2021/06/05 08:35:51;;;;;;;7.93;4.88;;;;;;;27.05;44.78;101641.56;5033368;28;20396;-66
2021/06/05 08:38:25;;;;;;;6.38;4.65;;;;;;;27.13;44.59;101638.81;5033383;28;20449;-66
2021/06/05 08:41:24;;;;;;;6.00;5.25;;;;;;;27.21;44.41;101636.09;5033726;28;20053;-66
2021/06/05 08:43:54;;;;;;;4.68;4.15;;;;;;;27.30;44.27;101636.06;5033288;28;20049;-66
2021/06/05 08:46:26;;;;;;;6.18;5.57;;;;;;;27.39;44.11;101645.84;5033412;28;20483;-67
2021/06/05 08:48:58;;;;;;;6.25;5.40;;;;;;;27.47;44.07;101644.94;5033527;28;20404;-66
2021/06/05 08:51:44;;;;;;;6.72;4.45;;;;;;;27.57;43.84;101645.56;5033162;28;20045;-66
2021/06/05 08:54:32;;;;;;;6.43;4.63;;;;;;;27.65;43.70;101642.78;5033177;28;20049;-64
2021/06/05 08:57:21;;;;;;;7.55;4.68;;;;;;;27.73;43.26;101636.53;5033253;28;20377;-64
2021/06/05 08:59:50;;;;;;;5.93;4.50;;;;;;;27.78;42.66;101634.13;5033068;28;20400;-67
2021/06/05 09:02:24;;;;;;;5.78;4.38;;;;;;;27.86;42.55;101631.38;5033562;28;20079;-66
2021/06/05 09:04:56;;;;;;;6.40;4.83;;;;;;;27.96;42.75;101632.97;5033297;28;20457;-65
2021/06/05 09:07:27;;;;;;;6.82;4.93;;;;;;;28.05;42.71;101628.38;5033094;28;20369;-67
2021/06/05 09:09:57;;;;;;;8.23;4.72;;;;;;;28.13;42.03;101626.47;5033027;28;20398;-67
2021/06/05 09:12:26;;;;;;;4.85;3.75;;;;;;;28.20;42.01;101623.88;5032906;28;20411;-67
2021/06/05 09:14:58;;;;;;;7.10;4.50;;;;;;;28.28;41.57;101625.69;5033034;28;20373;-67
2021/06/05 09:17:30;;;;;;;5.85;4.30;;;;;;;28.38;41.47;101622.69;5033212;28;20100;-67
2021/06/05 09:20:04;;;;;;;4.90;4.40;;;;;;;28.47;41.50;101619.72;5032958;28;20045;-67
2021/06/05 09:22:37;;;;;;;6.00;4.18;;;;;;;28.54;41.18;101616.31;5032883;28;20403;-67
2021/06/05 09:25:36;;;;;;;7.78;4.40;;;;;;;28.67;40.91;101621.91;5033188;28;20081;-67
2021/06/05 09:28:15;;;;;;;6.05;3.70;;;;;;;28.77;40.52;101610.84;5032218;28;20403;-67
2021/06/05 09:30:45;;;;;;;4.43;3.55;;;;;;;28.86;40.03;101611.56;5033297;28;20403;-67
2021/06/05 09:33:26;;;;;;;5.18;3.92;;;;;;;28.93;39.39;101609.81;5036808;28;20420;-63
2021/06/05 09:36:13;;;;;;;4.90;3.53;;;;;;;29.00;38.70;101611.56;5036507;28;20076;-66
2021/06/05 09:38:54;;;;;;;4.07;3.55;;;;;;;29.10;38.38;101589.66;5036754;28;20403;-65
2021/06/05 09:41:28;;;;;;;4.63;3.22;;;;;;;29.24;38.25;101595.22;5036577;28;20084;-66
2021/06/05 09:44:19;;;;;;;5.80;3.03;;;;;;;29.36;37.90;101580.22;5036788;28;20456;-66
2021/06/05 09:47:03;;;;;;;9.38;3.03;;;;;;;29.51;37.47;101573.91;5036487;28;20045;-66
2021/06/05 09:49:39;;;;;;;4.55;3.75;;;;;;;29.64;37.35;101568.63;5036186;28;20041;-64
2021/06/05 09:52:10;;;;;;;5.15;3.10;;;;;;;29.75;37.06;101569.97;5036406;28;20392;-64
2021/06/05 09:54:46;;;;;;;3.05;2.70;;;;;;;29.85;37.00;101559.63;5036320;28;20045;-65
2021/06/05 09:57:29;;;;;;;6.13;3.20;;;;;;;29.99;36.82;101571.44;5031889;28;20392;-65
2021/06/05 10:00:25;;;;;;;2.83;2.50;;;;;;;30.01;35.55;101579.38;5036244;28;20457;-65
2021/06/05 10:03:13;;;;;;;3.78;3.03;;;;;;;29.78;35.29;101575.00;5036282;28;20456;-66
2021/06/05 10:05:47;;;;;;;8.38;2.78;;;;;;;29.88;35.28;101571.97;5036467;28;20391;-65
2021/06/05 10:08:37;;;;;;;3.75;2.40;;;;;;;29.96;34.71;101569.97;5035569;28;20442;-65
2021/06/05 10:11:16;;;;;;;4.30;2.58;;;;;;;29.97;34.55;101576.22;5036060;28;20407;-64
2021/06/05 10:13:52;;;;;;;3.13;2.42;;;;;;;29.66;35.10;101574.66;5036410;28;20049;-65
2021/06/05 10:16:23;;;;;;;4.03;2.70;;;;;;;29.37;35.08;101571.06;5035955;28;20369;-66
2021/06/05 10:19:01;;;;;;;3.00;2.17;;;;;;;29.17;35.66;101570.81;5035898;28;20454;-66
2021/06/05 10:21:36;;;;;;;3.25;2.78;;;;;;;29.02;36.06;101572.72;5036928;28;20364;-67
2021/06/05 10:24:29;;;;;;;6.20;3.57;;;;;;;28.87;36.85;101572.75;5035961;28;20404;-67
2021/06/05 10:27:01;;;;;;;7.68;3.58;;;;;;;28.92;37.49;101564.91;5035614;28;20525;-64
2021/06/05 10:29:40;;;;;;;4.88;3.15;;;;;;;29.23;37.11;101567.34;5035579;28;20411;-68
2021/06/05 10:32:15;;;;;;;6.05;3.03;;;;;;;29.51;36.88;101549.56;5035701;28;20399;-66
2021/06/05 10:34:52;;;;;;;3.63;2.63;;;;;;;29.78;36.38;101559.59;5035967;28;20392;-67
2021/06/05 10:37:24;;;;;;;3.95;3.58;;;;;;;30.03;35.87;101556.50;5035900;28;20373;-67
2021/06/05 10:39:54;;;;;;;7.90;2.97;;;;;;;30.05;36.40;101551.72;5035672;28;20057;-67
2021/06/05 10:42:37;;;;;;;5.55;3.25;;;;;;;30.21;36.17;101550.59;5035195;28;20400;-67
2021/06/05 10:45:11;;;;;;;4.47;3.05;;;;;;;30.33;36.05;101544.63;5035521;28;20399;-67
2021/06/05 10:47:46;;;;;;;7.00;4.47;;;;;;;30.39;34.63;101541.13;5035764;28;20495;-64
2021/06/05 10:50:21;;;;;;;7.22;3.90;;;;;;;30.46;34.21;101542.81;5035419;28;20400;-69
2021/06/05 10:52:56;;;;;;;4.55;3.42;;;;;;;30.53;34.49;101540.19;5035253;28;20056;-69
2021/06/05 10:55:33;;;;;;;6.68;3.55;;;;;;;30.70;34.68;101534.41;5035378;28;20434;-66
2021/06/05 10:58:14;;;;;;;6.38;3.60;;;;;;;30.77;33.50;101525.28;5034843;28;20431;-70
2021/06/05 11:00:42;;;;;;;6.15;3.72;;;;;;;30.85;34.02;101524.25;5035476;28;20045;-67
2021/06/05 11:03:34;;;;;;;6.40;3.40;;;;;;;30.94;34.30;101525.78;5036364;28;20132;-67
2021/06/05 11:06:11;;;;;;;6.70;3.72;;;;;;;31.12;34.73;101518.94;5032358;28;20423;-70
2021/06/05 11:08:55;;;;;;;4.88;3.20;;;;;;;31.29;34.32;101522.13;5035441;28;20458;-68
2021/06/05 11:11:37;;;;;;;5.10;3.10;;;;;;;31.47;33.96;101507.94;5034883;28;20404;-69
2021/06/05 11:14:13;;;;;;;3.45;3.05;;;;;;;31.63;33.36;101500.47;5035152;28;20391;-67
2021/06/05 11:17:03;;;;;;;6.38;2.60;;;;;;;31.83;33.43;101505.88;5034888;28;20042;-68
2021/06/05 11:19:39;;;;;;;5.93;3.03;;;;;;;31.51;32.60;101503.78;5034824;28;20391;-68
2021/06/05 11:22:17;;;;;;;5.72;2.92;;;;;;;31.17;33.63;101505.59;5035132;28;20391;-68
2021/06/05 11:28:40;;;;;;;4.90;3.60;;;;;;;30.36;34.29;101509.00;5034548;28;20538;-67
2021/06/05 11:31:54;;;;;;;6.55;2.67;;;;;;;30.51;33.81;101498.91;5034811;28;20438;-68
2021/06/05 11:34:46;;;;;;;5.95;3.40;;;;;;;30.53;34.66;101496.84;5012924;28;20457;-66
2021/06/05 11:37:15;;;;;;;7.00;3.47;;;;;;;30.61;35.27;101490.41;5026755;28;20045;-67
2021/06/05 11:39:57;;;;;;;3.65;2.30;;;;;;;30.60;34.04;101489.59;5034694;28;20445;-68
2021/06/05 11:42:31;;;;;;;7.30;2.47;;;;;;;30.73;33.12;101485.25;5034529;28;20399;-67
2021/06/05 11:45:00;;;;;;;3.22;2.45;;;;;;;30.97;33.05;101486.56;5034396;28;20470;-61
2021/06/05 11:47:43;;;;;;;7.32;3.00;;;;;;;31.19;33.66;101489.16;5035355;28;20367;-63
2021/06/05 11:50:18;;;;;;;4.60;3.03;;;;;;;31.35;31.91;101479.75;5034565;28;20399;-61
2021/06/05 11:52:50;;;;;;;7.15;2.95;;;;;;;31.43;32.30;101474.97;5034383;28;20144;-58
2021/06/05 11:55:21;;;;;;;7.28;2.90;;;;;;;31.57;31.49;101467.66;5034799;28;20414;-61